Flight Track Log - Related Links

Times and Time Zones

All times are in EDT time to prevent confusion due to time zone crossing. See the UPS2324 flight status page for this flight to view local times or setup timezone preferences in your user account.

Time Position Orientation Groundspeed Altitude Reporting Facility
EDT Latitude Longitude Course Direction KTS MPH feet Rate Location/Type
Mon 05:37:34 PM 38.1156 -85.7069 166° South 217 250 3,000  Level FlightAware ADS-B
Mon 05:38:44 PM 38.0784 -85.6313 80° East 287 330 6,200 2,733 Climbing FlightAware ADS-B
Mon 05:39:15 PM 38.0865 -85.6907 93° East 292 336 7,600 2,763 Climbing FlightAware ADS-B (KIXA)
Mon 05:40:00 PM 38.0767 -85.4988 93° East 310 357 9,700 2,692 Climbing FlightAware ADS-B
Mon 05:40:33 PM 38.0745 -85.4366 93° East 326 375 11,100 2,113 Climbing FlightAware ADS-B (KIXA)
Mon 05:41:11 PM 38.0716 -85.3596 92° East 362 417 12,200 2,368 Climbing FlightAware ADS-B
Mon 05:42:27 PM 38.0572 -85.1960 100° East 379 436 15,600 2,603 Climbing FlightAware ADS-B
Mon 05:43:27 PM 38.0287 -85.0685 120° Southeast 383 441 18,100 2,378 Climbing FlightAware ADS-B
Mon 05:44:18 PM 37.9930 -84.9951 122° Southeast 401 461 20,000 1,911 Climbing FlightAware ADS-B
Mon 05:46:26 PM 37.8290 -84.7139 145° Southeast 417 480 23,800 1,787 Climbing FlightAware ADS-B
Mon 05:47:26 PM 37.7303 -84.6383 149° Southeast 421 484 25,600 1,872 Climbing FlightAware ADS-B
Mon 05:48:15 PM 37.6735 -84.5950 149° Southeast 430 495 27,200 1,632 Climbing FlightAware ADS-B
Mon 05:49:20 PM 37.5356 -84.4895 149° Southeast 436 502 28,700 1,426 Climbing FlightAware ADS-B
Mon 05:50:17 PM 37.4759 -84.4440 149° Southeast 447 514 30,100 2,000 Climbing FlightAware ADS-B
Mon 05:52:08 PM 37.3060 -84.3147 149° Southeast 435 501 34,300 1,782 Climbing FlightAware ADS-B
Mon 05:53:02 PM 37.1608 -84.2050 149° Southeast 440 506 35,000 1,138 Climbing Indianapolis Center
Mon 05:54:04 PM 37.0594 -84.1297 149° Southeast 429 494 36,500 1,403 Climbing Indianapolis Center
Mon 05:55:06 PM 36.9511 -84.0153 140° Southeast 436 502 37,900 806 Climbing Indianapolis Center
Mon 05:57:10 PM 36.7622 -83.8036 138° Southeast 456 525 39,000 355 Climbing Indianapolis Center
Mon 05:58:12 PM 36.6639 -83.6939 138° Southeast 468 539 39,000  Level Indianapolis Center
Mon 05:59:14 PM 36.5656 -83.5847 138° Southeast 471 542 39,000  Level Indianapolis Center
Mon 06:00:16 PM 36.4533 -83.4608 138° Southeast 471 542 39,000  Level Indianapolis Center
Mon 06:06:24 PM 35.7919 -83.0087 157° South 435 501 39,000  Level FlightAware ADS-B (KDZJ)
Mon 06:06:54 PM 35.7369 -82.9801 157° South 435 501 39,000  Level FlightAware ADS-B (KDZJ)
Mon 06:09:18 PM 35.4671 -82.8402 157° South 435 501 39,000  Level FlightAware ADS-B (KDZJ)
Mon 06:10:00 PM 35.3872 -82.8016 160° South 432 497 39,000  Level FlightAware ADS-B (KDZJ)
Mon 06:10:53 PM 35.2843 -82.7614 163° South 436 502 39,000  Level FlightAware ADS-B (KDZJ)
Mon 06:11:49 PM 35.1753 -82.7216 163° South 435 501 39,000  Level FlightAware ADS-B (KDZJ)
Mon 06:12:20 PM 35.1166 -82.7001 163° South 434 499 39,000  Level FlightAware ADS-B (KDZJ)
Mon 06:13:12 PM 35.0160 -82.6633 163° South 434 499 39,000  Level FlightAware ADS-B (KDZJ)
Mon 06:13:50 PM 34.9427 -82.6365 163° South 434 499 39,000  Level FlightAware ADS-B (KDZJ)
Mon 06:14:31 PM 34.8641 -82.6077 163° South 434 499 39,000  Level FlightAware ADS-B (KDZJ)
Mon 06:15:14 PM 34.7803 -82.5773 163° South 435 501 39,000  Level FlightAware ADS-B (KDZJ)
Mon 06:15:55 PM 34.7026 -82.5491 163° South 434 499 39,000  Level FlightAware ADS-B (KDZJ)
Mon 06:16:36 PM 34.6222 -82.5201 164° South 435 501 39,000  Level FlightAware ADS-B (KDZJ)
Mon 06:17:22 PM 34.5333 -82.4881 164° South 437 503 39,000  Level FlightAware ADS-B (KDZJ)
Mon 06:18:32 PM 34.4183 -82.4475 164° South 437 503 39,000  Level Atlanta Center
Mon 06:19:32 PM 34.3008 -82.4044 163° South 437 503 39,000  Level Atlanta Center
Mon 06:20:32 PM 34.1836 -82.3639 164° South 437 503 39,000  Level Atlanta Center
Mon 06:21:32 PM 34.0472 -82.3139 163° South 455 524 39,000  Level Atlanta Center
Mon 06:22:32 PM 33.9464 -82.2758 163° South 452 520 39,000  Level Atlanta Center
Mon 06:23:32 PM 33.8269 -82.2308 163° South 447 514 39,000 -200 Level Atlanta Center
Mon 06:24:32 PM 33.7053 -82.1908 165° South 447 514 38,600 -500 Descending Atlanta Center
Mon 06:25:32 PM 33.5878 -82.1511 164° South 447 514 38,000 -300 Descending Atlanta Center
Mon 06:26:32 PM 33.4722 -82.1114 164° South 441 507 38,000  Level Atlanta Center
Mon 06:27:32 PM 33.3547 -82.0717 164° South 436 502 38,000  Level Atlanta Center
Mon 06:28:32 PM 33.2414 -82.0319 164° South 436 502 38,000  Level Atlanta Center
Mon 06:29:32 PM 33.1261 -81.9950 165° South 436 502 38,000  Level Atlanta Center
Mon 06:30:32 PM 33.0106 -81.9506 162° South 436 502 38,000  Level Atlanta Center
Mon 06:31:32 PM 32.8950 -81.9139 165° South 436 502 38,000  Level Atlanta Center
Mon 06:32:45 PM 32.7553 -81.8650 164° South 438 504 38,000  Level Jacksonville Center
Mon 06:33:45 PM 32.6297 -81.8244 165° South 433 498 38,000  Level Jacksonville Center
Mon 06:34:45 PM 32.5228 -81.7889 164° South 438 504 38,000  Level Jacksonville Center
Mon 06:35:45 PM 32.3953 -81.7436 163° South 438 504 38,000  Level Jacksonville Center
Mon 06:36:45 PM 32.2883 -81.7106 165° South 438 504 38,000  Level Jacksonville Center
Mon 06:37:45 PM 32.1564 -81.6608 162° South 443 510 38,000  Level Jacksonville Center
Mon 06:38:45 PM 32.0369 -81.6231 165° South 443 510 38,000  Level Jacksonville Center
Mon 06:39:45 PM 31.9322 -81.5853 163° South 443 510 38,000  Level Jacksonville Center
Mon 06:40:45 PM 31.8003 -81.5456 166° South 443 510 38,000  Level Jacksonville Center
Mon 06:41:45 PM 31.6956 -81.5081 163° South 438 504 38,000  Level Jacksonville Center
Mon 06:42:45 PM 31.5656 -81.4614 163° South 438 504 38,000  Level Jacksonville Center
Mon 06:43:45 PM 31.4481 -81.4242 165° South 438 504 38,000  Level Jacksonville Center
Mon 06:44:45 PM 31.3414 -81.3892 164° South 438 504 38,000  Level Jacksonville Center
Mon 06:50:40 PM 30.6171 -81.1542 175° South 433 498 38,000  Level FlightAware ADS-B
Mon 06:51:10 PM 30.5574 -81.1507 179° South 428 493 38,000  Level FlightAware ADS-B
Mon 06:51:41 PM 30.5031 -81.1494 179° South 428 493 38,000  Level FlightAware ADS-B
Mon 06:52:11 PM 30.4396 -81.1478 179° South 428 493 38,000  Level FlightAware ADS-B
Mon 06:52:56 PM 30.3492 -81.1452 179° South 430 495 38,000  Level FlightAware ADS-B
Mon 06:53:40 PM 30.2630 -81.1426 179° South 431 496 38,000  Level FlightAware ADS-B
Mon 06:54:20 PM 30.1786 -81.1401 179° South 431 496 38,000  Level FlightAware ADS-B
Mon 06:54:51 PM 30.1169 -81.1384 179° South 431 496 38,000  Level FlightAware ADS-B
Mon 06:55:21 PM 30.0557 -81.1366 179° South 431 496 38,000  Level FlightAware ADS-B
Mon 06:55:51 PM 30.0016 -81.1351 179° South 432 497 38,000  Level FlightAware ADS-B
Mon 06:56:21 PM 29.9353 -81.1331 179° South 433 498 38,000  Level FlightAware ADS-B
Mon 06:56:53 PM 29.8715 -81.1312 179° South 433 498 38,000  Level FlightAware ADS-B
Mon 06:57:23 PM 29.8117 -81.1295 179° South 433 498 38,000  Level FlightAware ADS-B
Mon 06:57:54 PM 29.7499 -81.1278 179° South 432 497 38,000  Level FlightAware ADS-B
Mon 06:58:33 PM 29.6895 -81.1261 179° South 432 497 38,000  Level FlightAware ADS-B
Mon 06:59:15 PM 29.5882 -81.1234 179° South 432 497 38,000  Level FlightAware ADS-B
Mon 06:59:49 PM 29.5265 -81.1214 178° South 431 496 38,000  Level FlightAware ADS-B
Mon 07:00:28 PM 29.4401 -81.1186 178° South 429 494 38,000  Level FlightAware ADS-B
Mon 07:01:03 PM 29.3705 -81.1164 178° South 428 493 38,000  Level FlightAware ADS-B
Mon 07:01:44 PM 29.3058 -81.1106 167° South 444 511 38,000  Level FlightAware ADS-B
Mon 07:02:25 PM 29.2085 -81.0766 160° South 455 524 38,000  Level FlightAware ADS-B
Mon 07:02:56 PM 29.1549 -81.0544 160° South 455 524 38,000  Level FlightAware ADS-B (KSFB)
Mon 07:03:29 PM 29.0822 -81.0247 160° South 456 525 38,000  Level FlightAware ADS-B (KSFB)
Mon 07:04:06 PM 29.0081 -80.9948 161° South 456 525 38,000  Level FlightAware ADS-B
Mon 07:04:36 PM 28.9479 -80.9705 161° South 457 526 38,000  Level FlightAware ADS-B
Mon 07:05:09 PM 28.8811 -80.9438 161° South 458 527 38,000  Level FlightAware ADS-B
Mon 07:05:42 PM 28.8145 -80.9172 161° South 459 528 38,000  Level FlightAware ADS-B (KSFB)
Mon 07:06:14 PM 28.7518 -80.8921 161° South 460 529 38,000  Level FlightAware ADS-B (KSFB)
Mon 07:06:51 PM 28.6764 -80.8619 161° South 462 532 38,000  Level FlightAware ADS-B (KSFB)
Mon 07:07:24 PM 28.6099 -80.8350 161° South 462 532 38,000  Level FlightAware ADS-B
Mon 07:07:58 PM 28.5412 -80.8074 161° South 462 532 38,000  Level FlightAware ADS-B (KSFB)
Mon 07:08:32 PM 28.4724 -80.7799 161° South 463 533 38,000  Level FlightAware ADS-B (KSFB)
Mon 07:09:03 PM 28.4104 -80.7551 161° South 464 534 38,000  Level FlightAware ADS-B (KSFB)
Mon 07:09:39 PM 28.3382 -80.7262 161° South 464 534 38,000 -198 Level FlightAware ADS-B
Mon 07:10:34 PM 28.2242 -80.6806 161° South 466 536 37,700 -1,043 Descending FlightAware ADS-B (KSFB)
Mon 07:11:11 PM 28.1568 -80.6541 161° South 475 547 36,400 -2,333 Descending FlightAware ADS-B
Mon 07:12:22 PM 28.0006 -80.5981 164° South 469 540 33,500 -2,045 Descending FlightAware ADS-B
Mon 07:13:23 PM 27.8752 -80.5565 164° South 452 520 31,900 -1,582 Descending FlightAware ADS-B
Mon 07:13:53 PM 27.8140 -80.5361 164° South 462 532 31,100 -1,600 Descending FlightAware ADS-B
Mon 07:14:38 PM 27.7283 -80.5072 163° South 463 533 29,900 -1,600 Descending FlightAware ADS-B
Mon 07:15:23 PM 27.6402 -80.4754 161° South 452 520 28,700 -1,618 Descending FlightAware ADS-B
Mon 07:16:07 PM 27.5488 -80.4381 160° South 436 502 27,500 -1,571 Descending FlightAware ADS-B
Mon 07:16:47 PM 27.4715 -80.4067 160° South 426 490 26,500 -1,443 Descending FlightAware ADS-B (RJTF)
Mon 07:17:26 PM 27.4088 -80.3812 160° South 413 475 25,600 -1,600 Descending FlightAware ADS-B
Mon 07:18:02 PM 27.3358 -80.3515 160° South 410 472 24,500 -1,185 Descending FlightAware ADS-B (RJTF)
Mon 07:18:47 PM 27.2734 -80.3264 160° South 424 488 24,000 -1,087 Descending FlightAware ADS-B
Mon 07:20:09 PM 27.1034 -80.2577 160° South 407 468 22,200 -1,513 Descending FlightAware ADS-B
Mon 07:20:46 PM 27.0436 -80.2335 160° South 398 458 21,000 -1,886 Descending FlightAware ADS-B (RJTF)
Mon 07:21:19 PM 26.9873 -80.2108 160° South 391 450 20,000 -1,792 Descending FlightAware ADS-B (RJTF)
Mon 07:22:03 PM 26.9082 -80.1788 160° South 379 436 18,700 -1,520 Descending FlightAware ADS-B (RJTF)
Mon 07:22:34 PM 26.8584 -80.1588 160° South 364 419 18,100 -1,279 Descending FlightAware ADS-B (RJTF)
Mon 07:23:04 PM 26.8109 -80.1397 160° South 351 404 17,400 -1,279 Descending FlightAware ADS-B (RJTF)
Mon 07:23:35 PM 26.7633 -80.1208 160° South 360 414 16,800 -1,360 Descending FlightAware ADS-B (RJTF)
Mon 07:24:19 PM 26.6936 -80.0932 163° South 360 414 15,700 -1,440 Descending FlightAware ADS-B (RJTF)
Mon 07:24:50 PM 26.6458 -80.0811 171° South 351 404 15,000 -1,378 Descending FlightAware ADS-B (RJTF)
Mon 07:25:33 PM 26.5869 -80.0708 171° South 345 397 14,000 -1,297 Descending FlightAware ADS-B (RJTF)
Mon 07:26:04 PM 26.5245 -80.0600 171° South 342 394 13,400 -403 Descending FlightAware ADS-B (RJTF)
Mon 07:28:02 PM 26.3413 -80.0281 171° South 341 392 13,000 -154 Descending FlightAware ADS-B (RJTF)
Mon 07:28:40 PM 26.2842 -80.0219 171° South 341 392 13,000  Level Miami Center
Mon 07:29:29 PM 26.2194 -80.0225 180° South 347 399 13,000  Level Miami Center
Mon 07:29:40 PM 26.1900 -80.0333 198° South 344 396 13,000 -500 Level Miami Center
Mon 07:30:29 PM 26.1292 -80.0478 192° South 336 387 12,500 -822 Descending Miami Center
Mon 07:30:53 PM 26.0828 -80.0653 199° South 302 348 12,000 -1,300 Descending Miami Center
Mon 07:31:29 PM 26.0472 -80.0711 188° South 323 372 11,200 -1,837 Descending Miami Center
Mon 07:31:42 PM 26.0156 -80.0842 200° South 291 335 10,500 -1,800 Descending Miami Center
Mon 07:32:29 PM 25.9714 -80.0969 195° South 303 349 9,400 -1,233 Descending Miami Center
Mon 07:32:55 PM 25.9414 -80.1331 227° Southwest 286 329 9,000 -400 Descending Miami Center
Mon 07:33:29 PM 25.9217 -80.1672 237° Southwest 281 323 9,000  Level Miami Center
Mon 07:33:56 PM 25.9039 -80.2128 247° West 284 327 9,000 -600 Level Miami Center
Mon 07:34:29 PM 25.8950 -80.2472 254° West 276 318 8,400 -1,347 Descending Miami Center
Mon 07:34:45 PM 25.8817 -80.2769 244° Southwest 270 311 7,900 -1,600 Descending Miami Center
Mon 07:35:29 PM 25.8889 -80.3256 279° West 271 312 6,800 -1,672 Descending Miami Center
Mon 07:35:46 PM 25.8922 -80.3556 277° West 245 282 6,200 -1,462 Descending Miami Center
Mon 07:36:47 PM 25.9094 -80.4231 286° West 210 242 4,900 -1,475 Descending Miami Center
Mon 07:37:48 PM 25.8794 -80.4592 227° Southwest 192 221 3,200 -1,522 Descending Miami Center
Mon 07:39:01 PM 25.8258 -80.4253 150° Southeast 170 196 1,500 -750 Descending Miami Center
Mon 07:39:56 PM 25.8103 -80.3856 114° Southeast 145 167 1,600 -344 Climbing Miami Center
Mon 07:41:03 PM 25.7986 -80.3483 109° East 125 144 800 -724 Descending Miami Center
Mon 07:41:52 PM 25.8014 -80.3139 85° East 126 145 200 -735 Descending Miami Center
Mon 07:43:00 PM 25.7954 -80.2901 103° East  Level Estimated
Mon 07:50:00 PM 25.7954 -80.2901 103° East  Level Estimated

Login

Don't have an account? Register now (free) for customized features, flight alerts, and more!